Sara Borchard — V2BY8 — position and weather

sailwx.info

Track history (hours):
 
Tides and Currents Weather Stations Pressure Air Temp Water Temp Dewpoint Dewpoint Depression Visibility Wind Speed Wind Dir Waves Ship Positions

Sara Borchard

Last reported at 2015-Aug-28 14:33 UTC. Time now 2015-Aug-28 22:24 UTC.
Position N 32°18' E 026°40'.

Length 134 m; draft 6.9 m.

Type: Ship (hazmat cat A). MMSI: 304962000.

Date/timePositionNaut miles runAvg speedWind from/ knotsBaromVisibWave heightAir tempDewpointWater temp
2015-Aug-28 14:33N 32°18' E 026°40'10115.9
2015-Aug-28 08:13N 31°39' E 028°30'3316.0
2015-Aug-28 06:08N 31°27' E 029°06'3315.8
2015-Aug-28 04:03N 31°13' E 029°40'26 0.8
2015-Aug-26 17:13N 31°28' E 030°05'232 6.6
2015-Aug-25 06:21N 32°07' E 034°34'1114.2
2015-Aug-25 05:33N 32°18' E 034°38'1414.5
2015-Aug-25 04:33N 32°31' E 034°43'1514.6
2015-Aug-25 03:33N 32°46' E 034°47'9 1.4
2015-Aug-24 21:13N 32°53' E 034°53'913.8
2015-Aug-24 20:33N 32°54' E 034°43'11412.5
2015-Aug-24 11:22N 34°21' E 033°14'1113.6
2015-Aug-24 10:33N 34°31' E 033°08'10 9.4
2015-Aug-24 09:32N 34°39' E 033°01'0 0.0
2015-Aug-24 08:32N 34°39' E 033°01'0 0.0
2015-Aug-24 07:31N 34°39' E 033°01'0 0.0
2015-Aug-24 06:31N 34°39' E 033°01'0 0.0
2015-Aug-24 05:33N 34°39' E 033°01'0 0.0
2015-Aug-24 04:30N 34°39' E 033°01'1 0.5
2015-Aug-24 03:33N 34°39' E 033°02'4 4.5
2015-Aug-24 02:33N 34°35' E 033°03'1413.7
2015-Aug-24 01:33N 34°33' E 032°47'3115.3
2015-Aug-23 23:31N 34°37' E 032°10'2116.4
2015-Aug-23 22:13N 34°40' E 031°44'1117.1
2015-Aug-23 21:33N 34°42' E 031°30'1717.3
2015-Aug-23 20:33N 34°44' E 031°09'2017.3
2015-Aug-23 19:25N 34°47' E 030°46'1517.4
2015-Aug-23 18:33N 34°49' E 030°28'  
2015-Aug-20 21:33N 43°19' E 009°31'1717.5
2015-Aug-20 20:33N 43°35' E 009°24'1717.4
2015-Aug-20 19:33N 43°51' E 009°13'1717.0
2015-Aug-20 18:34N 44°07' E 009°04'1717.1
2015-Aug-20 17:34N 44°23' E 008°57'2 2.3
2015-Aug-20 16:28N 44°24' E 008°54'0 0.0
2015-Aug-20 15:31N 44°24' E 008°54'0 0.0
2015-Aug-20 14:33N 44°24' E 008°54'0 0.0
2015-Aug-20 13:33N 44°24' E 008°54'0 0.0
2015-Aug-20 12:30N 44°24' E 008°54'0 0.4
2015-Aug-20 11:34N 44°24' E 008°54'6 5.7
2015-Aug-20 10:34N 44°20' E 008°60'3 2.7
2015-Aug-20 09:34N 44°18' E 009°03'1 1.3
2015-Aug-20 08:34N 44°18' E 009°01'1111.0
2015-Aug-20 07:34N 44°11' E 008°49'1414.1
2015-Aug-20 06:33N 44°02' E 008°34'5913.9
2015-Aug-20 02:20N 43°24' E 007°32'1213.7
2015-Aug-20 01:26N 43°17' E 007°18'1213.7
2015-Aug-20 00:33N 43°09' E 007°06'1413.7
2015-Aug-19 23:33N 43°02' E 006°50'1413.6
2015-Aug-19 22:33N 42°55' E 006°34'1313.0
2015-Aug-19 21:33N 42°52' E 006°17'4613.8
2015-Aug-19 18:14N 43°06' E 005°17'913.1
2015-Aug-19 17:33N 43°13' E 005°09'1111.3
2015-Aug-19 16:33N 43°21' E 005°20'0 0.1
2015-Aug-19 15:29N 43°21' E 005°20'0 0.0
2015-Aug-19 10:33N 43°21' E 005°20'0 0.0
2015-Aug-19 09:05N 43°21' E 005°20'0 0.0
2015-Aug-19 08:32N 43°21' E 005°20'0 0.1
2015-Aug-19 07:33N 43°21' E 005°20'8 7.7
2015-Aug-19 06:34N 43°17' E 005°11'15716.6
2015-Aug-18 21:07N 41°27' E 002°40'  
Track history (hours):
 
Tides and Currents Weather Stations Pressure Air Temp Water Temp Dewpoint Dewpoint Depression Visibility Wind Speed Wind Dir Waves Ship Positions

Sara Borchard

Last reported at 2015-Aug-28 14:33 UTC. Time now 2015-Aug-28 22:24 UTC.
Position N 32°18' E 026°40'.

Length 134 m; draft 6.9 m.

Type: Ship (hazmat cat A). MMSI: 304962000.

Date/timePositionNaut miles runAvg speedWind from/ knotsBaromVisibWave heightAir tempDewpointWater temp
2015-Aug-28 14:33N 32°18' E 026°40'10115.9
2015-Aug-28 08:13N 31°39' E 028°30'3316.0
2015-Aug-28 06:08N 31°27' E 029°06'3315.8
2015-Aug-28 04:03N 31°13' E 029°40'26 0.8
2015-Aug-26 17:13N 31°28' E 030°05'232 6.6
2015-Aug-25 06:21N 32°07' E 034°34'1114.2
2015-Aug-25 05:33N 32°18' E 034°38'1414.5
2015-Aug-25 04:33N 32°31' E 034°43'1514.6
2015-Aug-25 03:33N 32°46' E 034°47'9 1.4
2015-Aug-24 21:13N 32°53' E 034°53'913.8
2015-Aug-24 20:33N 32°54' E 034°43'11412.5
2015-Aug-24 11:22N 34°21' E 033°14'1113.6
2015-Aug-24 10:33N 34°31' E 033°08'10 9.4
2015-Aug-24 09:32N 34°39' E 033°01'0 0.0
2015-Aug-24 08:32N 34°39' E 033°01'0 0.0
2015-Aug-24 07:31N 34°39' E 033°01'0 0.0
2015-Aug-24 06:31N 34°39' E 033°01'0 0.0
2015-Aug-24 05:33N 34°39' E 033°01'0 0.0
2015-Aug-24 04:30N 34°39' E 033°01'1 0.5
2015-Aug-24 03:33N 34°39' E 033°02'4 4.5
2015-Aug-24 02:33N 34°35' E 033°03'1413.7
2015-Aug-24 01:33N 34°33' E 032°47'3115.3
2015-Aug-23 23:31N 34°37' E 032°10'2116.4
2015-Aug-23 22:13N 34°40' E 031°44'1117.1
2015-Aug-23 21:33N 34°42' E 031°30'1717.3
2015-Aug-23 20:33N 34°44' E 031°09'2017.3
2015-Aug-23 19:25N 34°47' E 030°46'1517.4
2015-Aug-23 18:33N 34°49' E 030°28'  
2015-Aug-20 21:33N 43°19' E 009°31'1717.5
2015-Aug-20 20:33N 43°35' E 009°24'1717.4
2015-Aug-20 19:33N 43°51' E 009°13'1717.0
2015-Aug-20 18:34N 44°07' E 009°04'1717.1
2015-Aug-20 17:34N 44°23' E 008°57'2 2.3
2015-Aug-20 16:28N 44°24' E 008°54'0 0.0
2015-Aug-20 15:31N 44°24' E 008°54'0 0.0
2015-Aug-20 14:33N 44°24' E 008°54'0 0.0
2015-Aug-20 13:33N 44°24' E 008°54'0 0.0
2015-Aug-20 12:30N 44°24' E 008°54'0 0.4
2015-Aug-20 11:34N 44°24' E 008°54'6 5.7
2015-Aug-20 10:34N 44°20' E 008°60'3 2.7
2015-Aug-20 09:34N 44°18' E 009°03'1 1.3
2015-Aug-20 08:34N 44°18' E 009°01'1111.0
2015-Aug-20 07:34N 44°11' E 008°49'1414.1
2015-Aug-20 06:33N 44°02' E 008°34'5913.9
2015-Aug-20 02:20N 43°24' E 007°32'1213.7
2015-Aug-20 01:26N 43°17' E 007°18'1213.7
2015-Aug-20 00:33N 43°09' E 007°06'1413.7
2015-Aug-19 23:33N 43°02' E 006°50'1413.6
2015-Aug-19 22:33N 42°55' E 006°34'1313.0
2015-Aug-19 21:33N 42°52' E 006°17'4613.8
2015-Aug-19 18:14N 43°06' E 005°17'913.1
2015-Aug-19 17:33N 43°13' E 005°09'1111.3
2015-Aug-19 16:33N 43°21' E 005°20'0 0.1
2015-Aug-19 15:29N 43°21' E 005°20'0 0.0
2015-Aug-19 10:33N 43°21' E 005°20'0 0.0
2015-Aug-19 09:05N 43°21' E 005°20'0 0.0
2015-Aug-19 08:32N 43°21' E 005°20'0 0.1
2015-Aug-19 07:33N 43°21' E 005°20'8 7.7
2015-Aug-19 06:34N 43°17' E 005°11'15716.6
2015-Aug-18 21:07N 41°27' E 002°40'  

Dump ship's entire track history